sensor_id;sensor_type;location;lat;lon;timestamp;pressure;altitude;pressure_sealevel;temperature
15062;BMP180;7630;50.306;8.566;2023-08-12T00:02:04;98147.00;;;23.40
15062;BMP180;7630;50.306;8.566;2023-08-12T00:06:06;98139.00;;;23.00
15062;BMP180;7630;50.306;8.566;2023-08-12T00:10:08;98138.00;;;23.00
15062;BMP180;7630;50.306;8.566;2023-08-12T00:14:10;98134.00;;;23.10
15062;BMP180;7630;50.306;8.566;2023-08-12T00:18:11;98135.00;;;23.20
15062;BMP180;7630;50.306;8.566;2023-08-12T00:22:12;98126.00;;;23.00
15062;BMP180;7630;50.306;8.566;2023-08-12T00:26:13;98127.00;;;23.40
15062;BMP180;7630;50.306;8.566;2023-08-12T00:30:15;98130.00;;;23.40
15062;BMP180;7630;50.306;8.566;2023-08-12T00:34:17;98118.00;;;23.70
15062;BMP180;7630;50.306;8.566;2023-08-12T00:38:18;98107.00;;;23.80
15062;BMP180;7630;50.306;8.566;2023-08-12T00:42:19;98111.00;;;24.20
15062;BMP180;7630;50.306;8.566;2023-08-12T00:46:20;98100.00;;;24.20
15062;BMP180;7630;50.306;8.566;2023-08-12T00:50:22;98085.00;;;24.30
15062;BMP180;7630;50.306;8.566;2023-08-12T00:54:25;98086.00;;;24.60
15062;BMP180;7630;50.306;8.566;2023-08-12T00:58:27;98084.00;;;24.70
15062;BMP180;7630;50.306;8.566;2023-08-12T01:02:28;98083.00;;;24.80
15062;BMP180;7630;50.306;8.566;2023-08-12T01:06:30;98071.00;;;24.90
15062;BMP180;7630;50.306;8.566;2023-08-12T01:10:34;98068.00;;;24.90
15062;BMP180;7630;50.306;8.566;2023-08-12T01:14:59;98067.00;;;25.00
15062;BMP180;7630;50.306;8.566;2023-08-12T01:19:00;98064.00;;;24.90
15062;BMP180;7630;50.306;8.566;2023-08-12T01:23:14;98069.00;;;24.50
15062;BMP180;7630;50.306;8.566;2023-08-12T01:27:15;98060.00;;;24.00
15062;BMP180;7630;50.306;8.566;2023-08-12T01:31:35;98058.00;;;24.20
15062;BMP180;7630;50.306;8.566;2023-08-12T01:35:42;98051.00;;;24.10
15062;BMP180;7630;50.306;8.566;2023-08-12T01:39:45;98050.00;;;24.10
15062;BMP180;7630;50.306;8.566;2023-08-12T01:43:47;98054.00;;;24.00
15062;BMP180;7630;50.306;8.566;2023-08-12T01:47:48;98046.00;;;24.00
15062;BMP180;7630;50.306;8.566;2023-08-12T01:51:52;98042.00;;;24.30
15062;BMP180;7630;50.306;8.566;2023-08-12T01:55:53;98053.00;;;24.30
15062;BMP180;7630;50.306;8.566;2023-08-12T01:59:54;98051.00;;;23.90
15062;BMP180;7630;50.306;8.566;2023-08-12T02:03:55;98049.00;;;23.50
15062;BMP180;7630;50.306;8.566;2023-08-12T02:07:56;98055.00;;;23.80
15062;BMP180;7630;50.306;8.566;2023-08-12T02:11:57;98059.00;;;22.60
15062;BMP180;7630;50.306;8.566;2023-08-12T02:15:58;98048.00;;;22.90
15062;BMP180;7630;50.306;8.566;2023-08-12T02:19:59;98057.00;;;23.10
15062;BMP180;7630;50.306;8.566;2023-08-12T02:24:00;98060.00;;;23.50
15062;BMP180;7630;50.306;8.566;2023-08-12T02:28:02;98063.00;;;23.70
15062;BMP180;7630;50.306;8.566;2023-08-12T02:32:04;98074.00;;;22.50
15062;BMP180;7630;50.306;8.566;2023-08-12T02:36:05;98098.00;;;22.90
15062;BMP180;7630;50.306;8.566;2023-08-12T02:40:07;98109.00;;;23.40
15062;BMP180;7630;50.306;8.566;2023-08-12T02:44:08;98109.00;;;23.20
15062;BMP180;7630;50.306;8.566;2023-08-12T02:48:10;98105.00;;;22.40
15062;BMP180;7630;50.306;8.566;2023-08-12T02:52:12;98115.00;;;23.10
15062;BMP180;7630;50.306;8.566;2023-08-12T02:56:13;98124.00;;;23.50
15062;BMP180;7630;50.306;8.566;2023-08-12T03:00:15;98109.00;;;22.30
15062;BMP180;7630;50.306;8.566;2023-08-12T03:04:16;98128.00;;;22.70
15062;BMP180;7630;50.306;8.566;2023-08-12T03:08:17;98139.00;;;22.90
15062;BMP180;7630;50.306;8.566;2023-08-12T03:12:18;98146.00;;;22.90
15062;BMP180;7630;50.306;8.566;2023-08-12T03:16:20;98133.00;;;22.00
15062;BMP180;7630;50.306;8.566;2023-08-12T03:20:21;98130.00;;;21.10
15062;BMP180;7630;50.306;8.566;2023-08-12T03:24:22;98134.00;;;20.70
15062;BMP180;7630;50.306;8.566;2023-08-12T03:28:23;98103.00;;;21.70
15062;BMP180;7630;50.306;8.566;2023-08-12T03:32:25;98109.00;;;21.60
15062;BMP180;7630;50.306;8.566;2023-08-12T03:36:27;98117.00;;;22.00
15062;BMP180;7630;50.306;8.566;2023-08-12T03:40:28;98122.00;;;22.10
15062;BMP180;7630;50.306;8.566;2023-08-12T03:44:29;98120.00;;;22.40
15062;BMP180;7630;50.306;8.566;2023-08-12T03:48:30;98119.00;;;22.30
15062;BMP180;7630;50.306;8.566;2023-08-12T03:52:31;98117.00;;;22.60
15062;BMP180;7630;50.306;8.566;2023-08-12T03:56:32;98134.00;;;22.70
15062;BMP180;7630;50.306;8.566;2023-08-12T04:00:33;98140.00;;;22.80
15062;BMP180;7630;50.306;8.566;2023-08-12T04:04:34;98132.00;;;22.70
15062;BMP180;7630;50.306;8.566;2023-08-12T04:08:36;98107.00;;;22.30
15062;BMP180;7630;50.306;8.566;2023-08-12T04:12:37;98098.00;;;22.10
15062;BMP180;7630;50.306;8.566;2023-08-12T04:16:43;98084.00;;;22.40
15062;BMP180;7630;50.306;8.566;2023-08-12T04:20:42;98052.00;;;21.40
15062;BMP180;7630;50.306;8.566;2023-08-12T04:24:43;98072.00;;;22.20
15062;BMP180;7630;50.306;8.566;2023-08-12T04:28:44;98068.00;;;22.80
15062;BMP180;7630;50.306;8.566;2023-08-12T04:32:45;98047.00;;;22.80
15062;BMP180;7630;50.306;8.566;2023-08-12T04:36:47;98039.00;;;22.40
15062;BMP180;7630;50.306;8.566;2023-08-12T04:40:48;98040.00;;;22.70
15062;BMP180;7630;50.306;8.566;2023-08-12T04:44:49;98035.00;;;22.70
15062;BMP180;7630;50.306;8.566;2023-08-12T04:48:50;98025.00;;;22.80
15062;BMP180;7630;50.306;8.566;2023-08-12T04:52:51;98016.00;;;23.00
15062;BMP180;7630;50.306;8.566;2023-08-12T04:56:52;98004.00;;;22.80
15062;BMP180;7630;50.306;8.566;2023-08-12T05:00:53;98013.00;;;23.10
15062;BMP180;7630;50.306;8.566;2023-08-12T05:04:54;98004.00;;;23.00
15062;BMP180;7630;50.306;8.566;2023-08-12T05:08:55;97925.00;;;22.90
15062;BMP180;7630;50.306;8.566;2023-08-12T05:12:58;98005.00;;;23.10
15062;BMP180;7630;50.306;8.566;2023-08-12T05:16:59;98003.00;;;22.70
15062;BMP180;7630;50.306;8.566;2023-08-12T05:21:00;98005.00;;;22.80
15062;BMP180;7630;50.306;8.566;2023-08-12T05:25:01;98012.00;;;22.70
15062;BMP180;7630;50.306;8.566;2023-08-12T05:29:02;98004.00;;;22.30
15062;BMP180;7630;50.306;8.566;2023-08-12T05:33:04;98003.00;;;22.40
15062;BMP180;7630;50.306;8.566;2023-08-12T05:37:06;97997.00;;;22.90
15062;BMP180;7630;50.306;8.566;2023-08-12T05:41:07;97998.00;;;23.20
15062;BMP180;7630;50.306;8.566;2023-08-12T05:45:09;97997.00;;;23.60
15062;BMP180;7630;50.306;8.566;2023-08-12T05:49:11;98001.00;;;23.90
15062;BMP180;7630;50.306;8.566;2023-08-12T05:53:12;98002.00;;;24.20
15062;BMP180;7630;50.306;8.566;2023-08-12T05:57:14;98001.00;;;24.40
15062;BMP180;7630;50.306;8.566;2023-08-12T06:01:15;98004.00;;;24.60
15062;BMP180;7630;50.306;8.566;2023-08-12T06:05:16;98007.00;;;23.60
15062;BMP180;7630;50.306;8.566;2023-08-12T06:09:17;98001.00;;;23.10
15062;BMP180;7630;50.306;8.566;2023-08-12T06:13:19;98015.00;;;23.90
15062;BMP180;7630;50.306;8.566;2023-08-12T06:17:20;98016.00;;;24.50
15062;BMP180;7630;50.306;8.566;2023-08-12T06:21:21;98022.00;;;24.70
15062;BMP180;7630;50.306;8.566;2023-08-12T06:25:22;98026.00;;;25.50
15062;BMP180;7630;50.306;8.566;2023-08-12T06:29:23;98030.00;;;25.50
15062;BMP180;7630;50.306;8.566;2023-08-12T06:33:24;98025.00;;;25.90
15062;BMP180;7630;50.306;8.566;2023-08-12T06:37:26;98035.00;;;25.70
15062;BMP180;7630;50.306;8.566;2023-08-12T06:41:27;98033.00;;;25.20
15062;BMP180;7630;50.306;8.566;2023-08-12T06:45:28;98037.00;;;24.20
15062;BMP180;7630;50.306;8.566;2023-08-12T06:49:29;98028.00;;;24.60
15062;BMP180;7630;50.306;8.566;2023-08-12T06:53:30;98046.00;;;25.60
15062;BMP180;7630;50.306;8.566;2023-08-12T06:57:31;98046.00;;;25.60
15062;BMP180;7630;50.306;8.566;2023-08-12T07:01:33;98048.00;;;25.60
15062;BMP180;7630;50.306;8.566;2023-08-12T07:05:34;98043.00;;;25.50
15062;BMP180;7630;50.306;8.566;2023-08-12T07:09:35;98042.00;;;23.40
15062;BMP180;7630;50.306;8.566;2023-08-12T07:13:36;98035.00;;;23.60
15062;BMP180;7630;50.306;8.566;2023-08-12T07:17:37;98038.00;;;24.90
15062;BMP180;7630;50.306;8.566;2023-08-12T07:21:38;98036.00;;;25.70
15062;BMP180;7630;50.306;8.566;2023-08-12T07:25:39;98047.00;;;25.50
15062;BMP180;7630;50.306;8.566;2023-08-12T07:29:40;98054.00;;;25.50
15062;BMP180;7630;50.306;8.566;2023-08-12T07:33:41;98041.00;;;26.20
15062;BMP180;7630;50.306;8.566;2023-08-12T07:37:43;98035.00;;;26.40
15062;BMP180;7630;50.306;8.566;2023-08-12T07:41:44;98043.00;;;26.40
15062;BMP180;7630;50.306;8.566;2023-08-12T07:45:45;98057.00;;;26.60
15062;BMP180;7630;50.306;8.566;2023-08-12T07:49:48;98069.00;;;26.30
15062;BMP180;7630;50.306;8.566;2023-08-12T07:53:49;98048.00;;;26.20
15062;BMP180;7630;50.306;8.566;2023-08-12T07:57:50;98054.00;;;26.00
15062;BMP180;7630;50.306;8.566;2023-08-12T08:01:52;98049.00;;;25.60
15062;BMP180;7630;50.306;8.566;2023-08-12T08:05:53;98037.00;;;26.10
15062;BMP180;7630;50.306;8.566;2023-08-12T08:09:54;98053.00;;;26.30
15062;BMP180;7630;50.306;8.566;2023-08-12T08:13:55;98060.00;;;26.10
15062;BMP180;7630;50.306;8.566;2023-08-12T08:17:56;98059.00;;;26.00
15062;BMP180;7630;50.306;8.566;2023-08-12T08:21:57;98048.00;;;25.60
15062;BMP180;7630;50.306;8.566;2023-08-12T08:25:59;98038.00;;;25.90
15062;BMP180;7630;50.306;8.566;2023-08-12T08:30:00;98040.00;;;26.10
15062;BMP180;7630;50.306;8.566;2023-08-12T08:34:01;98042.00;;;25.90
15062;BMP180;7630;50.306;8.566;2023-08-12T08:38:03;98037.00;;;26.20
15062;BMP180;7630;50.306;8.566;2023-08-12T08:42:05;98038.00;;;25.90
15062;BMP180;7630;50.306;8.566;2023-08-12T08:46:07;98046.00;;;25.30
15062;BMP180;7630;50.306;8.566;2023-08-12T08:50:09;98034.00;;;26.30
15062;BMP180;7630;50.306;8.566;2023-08-12T08:54:12;98036.00;;;26.20
15062;BMP180;7630;50.306;8.566;2023-08-12T08:58:13;98041.00;;;26.50
15062;BMP180;7630;50.306;8.566;2023-08-12T09:02:17;98041.00;;;25.90
15062;BMP180;7630;50.306;8.566;2023-08-12T09:06:20;98035.00;;;25.00
15062;BMP180;7630;50.306;8.566;2023-08-12T09:10:24;98023.00;;;25.20
15062;BMP180;7630;50.306;8.566;2023-08-12T09:14:29;98035.00;;;26.00
15062;BMP180;7630;50.306;8.566;2023-08-12T09:18:30;98031.00;;;25.90
15062;BMP180;7630;50.306;8.566;2023-08-12T09:22:32;98018.00;;;26.20
15062;BMP180;7630;50.306;8.566;2023-08-12T09:26:33;98016.00;;;26.80
15062;BMP180;7630;50.306;8.566;2023-08-12T09:30:34;98023.00;;;26.40
15062;BMP180;7630;50.306;8.566;2023-08-12T09:34:36;98017.00;;;26.50
15062;BMP180;7630;50.306;8.566;2023-08-12T09:38:38;98025.00;;;26.30
15062;BMP180;7630;50.306;8.566;2023-08-12T09:42:44;98024.00;;;26.00
15062;BMP180;7630;50.306;8.566;2023-08-12T09:46:45;97999.00;;;25.90
15062;BMP180;7630;50.306;8.566;2023-08-12T09:50:47;98003.00;;;26.80
15062;BMP180;7630;50.306;8.566;2023-08-12T09:54:48;98004.00;;;27.20
15062;BMP180;7630;50.306;8.566;2023-08-12T09:58:52;98009.00;;;27.20
15062;BMP180;7630;50.306;8.566;2023-08-12T10:02:54;98003.00;;;27.00
15062;BMP180;7630;50.306;8.566;2023-08-12T10:06:55;98013.00;;;27.60
15062;BMP180;7630;50.306;8.566;2023-08-12T10:10:57;98014.00;;;27.80
15062;BMP180;7630;50.306;8.566;2023-08-12T10:15:00;98007.00;;;27.00
15062;BMP180;7630;50.306;8.566;2023-08-12T10:19:02;98009.00;;;26.90
15062;BMP180;7630;50.306;8.566;2023-08-12T10:23:05;98023.00;;;26.70
15062;BMP180;7630;50.306;8.566;2023-08-12T10:27:08;98036.00;;;25.70
15062;BMP180;7630;50.306;8.566;2023-08-12T10:31:12;98052.00;;;25.60
15062;BMP180;7630;50.306;8.566;2023-08-12T10:35:13;98068.00;;;25.70
15062;BMP180;7630;50.306;8.566;2023-08-12T10:39:14;98075.00;;;24.60
15062;BMP180;7630;50.306;8.566;2023-08-12T10:43:16;98070.00;;;24.80
15062;BMP180;7630;50.306;8.566;2023-08-12T10:47:17;98076.00;;;24.40
15062;BMP180;7630;50.306;8.566;2023-08-12T10:51:27;98070.00;;;24.40
15062;BMP180;7630;50.306;8.566;2023-08-12T10:55:27;98061.00;;;24.30
15062;BMP180;7630;50.306;8.566;2023-08-12T11:03:50;98041.00;;;23.40
15062;BMP180;7630;50.306;8.566;2023-08-12T11:07:58;98039.00;;;23.60
15062;BMP180;7630;50.306;8.566;2023-08-12T11:12:02;98033.00;;;24.00
15062;BMP180;7630;50.306;8.566;2023-08-12T11:16:07;98000.00;;;24.10
15062;BMP180;7630;50.306;8.566;2023-08-12T11:20:10;97978.00;;;23.60
15062;BMP180;7630;50.306;8.566;2023-08-12T11:24:11;97952.00;;;23.80
15062;BMP180;7630;50.306;8.566;2023-08-12T11:28:13;97967.00;;;23.50
15062;BMP180;7630;50.306;8.566;2023-08-12T11:32:15;97958.00;;;23.80
15062;BMP180;7630;50.306;8.566;2023-08-12T11:36:16;97970.00;;;24.00
15062;BMP180;7630;50.306;8.566;2023-08-12T11:40:17;97945.00;;;24.40
15062;BMP180;7630;50.306;8.566;2023-08-12T11:44:22;97929.00;;;24.10
15062;BMP180;7630;50.306;8.566;2023-08-12T11:48:24;97925.00;;;24.70
15062;BMP180;7630;50.306;8.566;2023-08-12T11:52:25;97943.00;;;25.70
15062;BMP180;7630;50.306;8.566;2023-08-12T11:56:26;97961.00;;;25.60
15062;BMP180;7630;50.306;8.566;2023-08-12T12:00:28;97967.00;;;25.40
15062;BMP180;7630;50.306;8.566;2023-08-12T12:04:33;97981.00;;;25.00
15062;BMP180;7630;50.306;8.566;2023-08-12T12:08:35;97988.00;;;24.50
15062;BMP180;7630;50.306;8.566;2023-08-12T12:12:36;97995.00;;;24.60
15062;BMP180;7630;50.306;8.566;2023-08-12T12:16:43;97982.00;;;25.00
15062;BMP180;7630;50.306;8.566;2023-08-12T12:20:58;97989.00;;;25.60
15062;BMP180;7630;50.306;8.566;2023-08-12T12:25:05;97983.00;;;24.80
15062;BMP180;7630;50.306;8.566;2023-08-12T12:29:04;97983.00;;;25.50
15062;BMP180;7630;50.306;8.566;2023-08-12T12:33:06;97981.00;;;24.60
15062;BMP180;7630;50.306;8.566;2023-08-12T12:37:07;97987.00;;;24.90
15062;BMP180;7630;50.306;8.566;2023-08-12T12:41:09;97997.00;;;24.70
15062;BMP180;7630;50.306;8.566;2023-08-12T12:45:10;97993.00;;;25.50
15062;BMP180;7630;50.306;8.566;2023-08-12T12:49:11;98000.00;;;26.20
15062;BMP180;7630;50.306;8.566;2023-08-12T12:53:12;97996.00;;;26.80
15062;BMP180;7630;50.306;8.566;2023-08-12T12:57:13;97996.00;;;27.20
15062;BMP180;7630;50.306;8.566;2023-08-12T13:01:14;98003.00;;;28.10
15062;BMP180;7630;50.306;8.566;2023-08-12T13:05:15;97992.00;;;28.10
15062;BMP180;7630;50.306;8.566;2023-08-12T13:09:16;97988.00;;;29.00
15062;BMP180;7630;50.306;8.566;2023-08-12T13:13:18;97978.00;;;30.10
15062;BMP180;7630;50.306;8.566;2023-08-12T13:17:19;97985.00;;;30.80
15062;BMP180;7630;50.306;8.566;2023-08-12T13:21:20;97964.00;;;31.50
15062;BMP180;7630;50.306;8.566;2023-08-12T13:25:21;97948.00;;;31.60
15062;BMP180;7630;50.306;8.566;2023-08-12T13:29:22;97961.00;;;31.80
15062;BMP180;7630;50.306;8.566;2023-08-12T13:33:24;97973.00;;;31.70
15062;BMP180;7630;50.306;8.566;2023-08-12T13:37:25;97964.00;;;32.30
15062;BMP180;7630;50.306;8.566;2023-08-12T13:41:26;97963.00;;;32.10
15062;BMP180;7630;50.306;8.566;2023-08-12T13:45:27;97979.00;;;30.70
15062;BMP180;7630;50.306;8.566;2023-08-12T13:49:29;97985.00;;;29.70
15062;BMP180;7630;50.306;8.566;2023-08-12T13:53:30;97973.00;;;30.00
15062;BMP180;7630;50.306;8.566;2023-08-12T13:57:31;97977.00;;;30.30
15062;BMP180;7630;50.306;8.566;2023-08-12T14:01:32;97975.00;;;29.00
15062;BMP180;7630;50.306;8.566;2023-08-12T14:05:34;97973.00;;;30.30
15062;BMP180;7630;50.306;8.566;2023-08-12T14:09:35;97960.00;;;30.60
15062;BMP180;7630;50.306;8.566;2023-08-12T14:13:36;97961.00;;;31.10
15062;BMP180;7630;50.306;8.566;2023-08-12T14:17:37;97957.00;;;31.10
15062;BMP180;7630;50.306;8.566;2023-08-12T14:21:38;97955.00;;;29.70
15062;BMP180;7630;50.306;8.566;2023-08-12T14:25:39;97965.00;;;29.40
15062;BMP180;7630;50.306;8.566;2023-08-12T14:29:41;97958.00;;;28.80
15062;BMP180;7630;50.306;8.566;2023-08-12T14:33:43;97964.00;;;28.80
15062;BMP180;7630;50.306;8.566;2023-08-12T14:37:44;97957.00;;;28.30
15062;BMP180;7630;50.306;8.566;2023-08-12T14:41:45;97937.00;;;28.80
15062;BMP180;7630;50.306;8.566;2023-08-12T14:45:46;97936.00;;;29.40
15062;BMP180;7630;50.306;8.566;2023-08-12T14:49:47;97921.00;;;29.40
15062;BMP180;7630;50.306;8.566;2023-08-12T14:53:50;97927.00;;;29.40
15062;BMP180;7630;50.306;8.566;2023-08-12T14:57:51;97914.00;;;28.90
15062;BMP180;7630;50.306;8.566;2023-08-12T15:01:52;97912.00;;;29.10
15062;BMP180;7630;50.306;8.566;2023-08-12T15:06:00;97913.00;;;30.80
15062;BMP180;7630;50.306;8.566;2023-08-12T15:10:02;97922.00;;;30.60
15062;BMP180;7630;50.306;8.566;2023-08-12T15:14:03;97921.00;;;29.80
15062;BMP180;7630;50.306;8.566;2023-08-12T15:18:04;97917.00;;;29.10
15062;BMP180;7630;50.306;8.566;2023-08-12T15:22:05;97926.00;;;29.60
15062;BMP180;7630;50.306;8.566;2023-08-12T15:26:07;97928.00;;;29.60
15062;BMP180;7630;50.306;8.566;2023-08-12T15:30:09;97939.00;;;30.40
15062;BMP180;7630;50.306;8.566;2023-08-12T15:34:11;97938.00;;;30.50
15062;BMP180;7630;50.306;8.566;2023-08-12T15:38:12;97951.00;;;29.40
15062;BMP180;7630;50.306;8.566;2023-08-12T15:42:13;97947.00;;;29.00
15062;BMP180;7630;50.306;8.566;2023-08-12T15:46:14;97938.00;;;28.40
15062;BMP180;7630;50.306;8.566;2023-08-12T15:50:15;97942.00;;;28.40
15062;BMP180;7630;50.306;8.566;2023-08-12T15:54:16;97946.00;;;28.20
15062;BMP180;7630;50.306;8.566;2023-08-12T15:58:18;97950.00;;;28.20
15062;BMP180;7630;50.306;8.566;2023-08-12T16:02:19;97958.00;;;27.40
15062;BMP180;7630;50.306;8.566;2023-08-12T16:06:20;97955.00;;;27.20
15062;BMP180;7630;50.306;8.566;2023-08-12T16:10:22;97965.00;;;27.10
15062;BMP180;7630;50.306;8.566;2023-08-12T16:14:23;97973.00;;;27.50
15062;BMP180;7630;50.306;8.566;2023-08-12T16:18:25;97966.00;;;26.30
15062;BMP180;7630;50.306;8.566;2023-08-12T16:22:26;97962.00;;;27.10
15062;BMP180;7630;50.306;8.566;2023-08-12T16:26:27;97847.00;;;26.30
15062;BMP180;7630;50.306;8.566;2023-08-12T16:30:28;97962.00;;;27.30
15062;BMP180;7630;50.306;8.566;2023-08-12T16:34:30;97971.00;;;26.70
15062;BMP180;7630;50.306;8.566;2023-08-12T16:38:31;97975.00;;;26.70
15062;BMP180;7630;50.306;8.566;2023-08-12T16:42:32;97965.00;;;26.00
15062;BMP180;7630;50.306;8.566;2023-08-12T16:46:33;97974.00;;;26.10
15062;BMP180;7630;50.306;8.566;2023-08-12T16:50:34;97984.00;;;26.40
15062;BMP180;7630;50.306;8.566;2023-08-12T16:54:35;97979.00;;;26.30
15062;BMP180;7630;50.306;8.566;2023-08-12T16:58:36;97972.00;;;26.10
15062;BMP180;7630;50.306;8.566;2023-08-12T17:02:39;97968.00;;;27.10
15062;BMP180;7630;50.306;8.566;2023-08-12T17:06:40;97975.00;;;27.10
15062;BMP180;7630;50.306;8.566;2023-08-12T17:10:42;97971.00;;;27.00
15062;BMP180;7630;50.306;8.566;2023-08-12T17:14:43;97982.00;;;27.30
15062;BMP180;7630;50.306;8.566;2023-08-12T17:18:44;97986.00;;;26.90
15062;BMP180;7630;50.306;8.566;2023-08-12T17:22:45;97982.00;;;26.70
15062;BMP180;7630;50.306;8.566;2023-08-12T17:26:46;97983.00;;;27.30
15062;BMP180;7630;50.306;8.566;2023-08-12T17:30:47;97992.00;;;26.90
15062;BMP180;7630;50.306;8.566;2023-08-12T17:34:49;97990.00;;;27.10
15062;BMP180;7630;50.306;8.566;2023-08-12T17:38:50;97979.00;;;26.20
15062;BMP180;7630;50.306;8.566;2023-08-12T17:42:51;97977.00;;;25.60
15062;BMP180;7630;50.306;8.566;2023-08-12T17:46:52;97974.00;;;25.50
15062;BMP180;7630;50.306;8.566;2023-08-12T17:50:53;97982.00;;;25.90
15062;BMP180;7630;50.306;8.566;2023-08-12T17:54:55;97977.00;;;26.20
15062;BMP180;7630;50.306;8.566;2023-08-12T17:58:56;97967.00;;;25.30
15062;BMP180;7630;50.306;8.566;2023-08-12T18:02:57;97968.00;;;25.70
15062;BMP180;7630;50.306;8.566;2023-08-12T18:06:59;97977.00;;;25.70
15062;BMP180;7630;50.306;8.566;2023-08-12T18:11:01;97978.00;;;25.10
15062;BMP180;7630;50.306;8.566;2023-08-12T18:15:03;97978.00;;;25.30
15062;BMP180;7630;50.306;8.566;2023-08-12T18:19:06;97989.00;;;25.00
15062;BMP180;7630;50.306;8.566;2023-08-12T18:23:07;97981.00;;;24.90
15062;BMP180;7630;50.306;8.566;2023-08-12T18:27:08;97986.00;;;25.50
15062;BMP180;7630;50.306;8.566;2023-08-12T18:31:09;97986.00;;;25.40
15062;BMP180;7630;50.306;8.566;2023-08-12T18:35:11;97984.00;;;25.40
15062;BMP180;7630;50.306;8.566;2023-08-12T18:39:12;97985.00;;;25.00
15062;BMP180;7630;50.306;8.566;2023-08-12T18:43:13;97986.00;;;24.70
15062;BMP180;7630;50.306;8.566;2023-08-12T18:47:14;97989.00;;;24.80
15062;BMP180;7630;50.306;8.566;2023-08-12T18:51:16;97997.00;;;24.50
15062;BMP180;7630;50.306;8.566;2023-08-12T18:55:18;97988.00;;;24.90
15062;BMP180;7630;50.306;8.566;2023-08-12T18:59:21;98001.00;;;24.40
15062;BMP180;7630;50.306;8.566;2023-08-12T19:03:23;98001.00;;;24.30
15062;BMP180;7630;50.306;8.566;2023-08-12T19:07:25;98010.00;;;24.00
15062;BMP180;7630;50.306;8.566;2023-08-12T19:11:26;98022.00;;;23.20
15062;BMP180;7630;50.306;8.566;2023-08-12T19:15:27;98025.00;;;24.40
15062;BMP180;7630;50.306;8.566;2023-08-12T19:19:28;98037.00;;;24.70
15062;BMP180;7630;50.306;8.566;2023-08-12T19:23:29;98037.00;;;24.60
15062;BMP180;7630;50.306;8.566;2023-08-12T19:27:30;98038.00;;;24.90
15062;BMP180;7630;50.306;8.566;2023-08-12T19:31:32;98041.00;;;24.80
15062;BMP180;7630;50.306;8.566;2023-08-12T19:35:33;98055.00;;;24.40
15062;BMP180;7630;50.306;8.566;2023-08-12T19:39:34;98057.00;;;23.10
15062;BMP180;7630;50.306;8.566;2023-08-12T19:43:35;98061.00;;;23.30
15062;BMP180;7630;50.306;8.566;2023-08-12T19:47:41;98073.00;;;23.30
15062;BMP180;7630;50.306;8.566;2023-08-12T19:51:42;98065.00;;;23.50
15062;BMP180;7630;50.306;8.566;2023-08-12T19:55:43;98072.00;;;23.20
15062;BMP180;7630;50.306;8.566;2023-08-12T19:59:45;98090.00;;;23.00
15062;BMP180;7630;50.306;8.566;2023-08-12T20:03:46;98078.00;;;23.60
15062;BMP180;7630;50.306;8.566;2023-08-12T20:07:48;98096.00;;;22.50
15062;BMP180;7630;50.306;8.566;2023-08-12T20:11:50;98095.00;;;21.90
15062;BMP180;7630;50.306;8.566;2023-08-12T20:15:51;98098.00;;;22.30
15062;BMP180;7630;50.306;8.566;2023-08-12T20:19:54;98096.00;;;21.90
15062;BMP180;7630;50.306;8.566;2023-08-12T20:23:55;98092.00;;;23.10
15062;BMP180;7630;50.306;8.566;2023-08-12T20:27:56;98089.00;;;24.00
15062;BMP180;7630;50.306;8.566;2023-08-12T20:31:58;98093.00;;;24.40
15062;BMP180;7630;50.306;8.566;2023-08-12T20:36:00;98090.00;;;24.20
15062;BMP180;7630;50.306;8.566;2023-08-12T20:40:01;98101.00;;;24.20
15062;BMP180;7630;50.306;8.566;2023-08-12T20:44:04;98104.00;;;24.10
15062;BMP180;7630;50.306;8.566;2023-08-12T20:48:06;98097.00;;;24.00
15062;BMP180;7630;50.306;8.566;2023-08-12T20:52:07;98094.00;;;24.00
15062;BMP180;7630;50.306;8.566;2023-08-12T20:56:09;98095.00;;;23.10
15062;BMP180;7630;50.306;8.566;2023-08-12T21:00:11;98094.00;;;23.00
15062;BMP180;7630;50.306;8.566;2023-08-12T21:04:13;98101.00;;;23.60
15062;BMP180;7630;50.306;8.566;2023-08-12T21:08:14;98097.00;;;23.70
15062;BMP180;7630;50.306;8.566;2023-08-12T21:12:15;98095.00;;;23.50
15062;BMP180;7630;50.306;8.566;2023-08-12T21:16:17;98097.00;;;23.80
15062;BMP180;7630;50.306;8.566;2023-08-12T21:20:18;98109.00;;;23.50
15062;BMP180;7630;50.306;8.566;2023-08-12T21:24:20;98123.00;;;23.20
15062;BMP180;7630;50.306;8.566;2023-08-12T21:28:21;98125.00;;;22.90
15062;BMP180;7630;50.306;8.566;2023-08-12T21:32:22;98122.00;;;23.10
15062;BMP180;7630;50.306;8.566;2023-08-12T21:36:24;98116.00;;;23.10
15062;BMP180;7630;50.306;8.566;2023-08-12T21:40:25;98125.00;;;21.90
15062;BMP180;7630;50.306;8.566;2023-08-12T21:44:27;98127.00;;;22.50
15062;BMP180;7630;50.306;8.566;2023-08-12T21:48:28;98128.00;;;23.10
15062;BMP180;7630;50.306;8.566;2023-08-12T21:52:29;98135.00;;;23.10
15062;BMP180;7630;50.306;8.566;2023-08-12T21:56:30;98136.00;;;23.00
15062;BMP180;7630;50.306;8.566;2023-08-12T22:00:31;98143.00;;;22.80
15062;BMP180;7630;50.306;8.566;2023-08-12T22:04:33;98161.00;;;22.90
15062;BMP180;7630;50.306;8.566;2023-08-12T22:08:34;98135.00;;;22.40
15062;BMP180;7630;50.306;8.566;2023-08-12T22:12:35;98136.00;;;22.10
15062;BMP180;7630;50.306;8.566;2023-08-12T22:16:37;98147.00;;;22.50
15062;BMP180;7630;50.306;8.566;2023-08-12T22:20:38;98136.00;;;22.70
15062;BMP180;7630;50.306;8.566;2023-08-12T22:24:39;98126.00;;;22.90
15062;BMP180;7630;50.306;8.566;2023-08-12T22:28:40;98129.00;;;22.90
15062;BMP180;7630;50.306;8.566;2023-08-12T22:32:42;98131.00;;;23.30
15062;BMP180;7630;50.306;8.566;2023-08-12T22:36:43;98133.00;;;23.30
15062;BMP180;7630;50.306;8.566;2023-08-12T22:40:44;98129.00;;;23.30
15062;BMP180;7630;50.306;8.566;2023-08-12T22:44:45;98131.00;;;23.00
15062;BMP180;7630;50.306;8.566;2023-08-12T22:48:46;98125.00;;;23.10
15062;BMP180;7630;50.306;8.566;2023-08-12T22:52:47;98121.00;;;22.80
15062;BMP180;7630;50.306;8.566;2023-08-12T22:56:49;98116.00;;;22.80
15062;BMP180;7630;50.306;8.566;2023-08-12T23:00:50;98112.00;;;22.70
15062;BMP180;7630;50.306;8.566;2023-08-12T23:04:51;98112.00;;;22.80
15062;BMP180;7630;50.306;8.566;2023-08-12T23:08:52;98092.00;;;22.50
15062;BMP180;7630;50.306;8.566;2023-08-12T23:12:53;98103.00;;;22.70
15062;BMP180;7630;50.306;8.566;2023-08-12T23:16:55;98102.00;;;22.70
15062;BMP180;7630;50.306;8.566;2023-08-12T23:20:56;98099.00;;;22.70
15062;BMP180;7630;50.306;8.566;2023-08-12T23:24:57;98095.00;;;22.60
15062;BMP180;7630;50.306;8.566;2023-08-12T23:28:58;98095.00;;;22.50
15062;BMP180;7630;50.306;8.566;2023-08-12T23:32:59;98095.00;;;22.40
15062;BMP180;7630;50.306;8.566;2023-08-12T23:37:01;98100.00;;;22.50